< < Back
Terminal Aerodrome Forecast


Current Version              Previous Versions:   1  2  3  4  5  6  7  8  9  

Terminal Aerodrome Forecast

706
FTUS42 KJAX 291300 AAA
TAFSSI
TAF AMD
KSSI 291328Z 2913/3012 33007KT P6SM FEW250
     FM291900 17008KT P6SM FEW250
     FM292100 12008KT P6SM FEW250
     FM300000 15004KT P6SM SCT250=



Latest METAR

497
SAUS70 KWBC 291700 RRE
MTRSSI
METAR KSSI 291653Z AUTO VRB03KT 10SM CLR 32/18 A2992 RMK AO2 SLP130
T03170183


USA.gov is the U.S. government's official web portal to all federal, state and local government web resources and services.